sensor_id;sensor_type;location;lat;lon;timestamp;P1;durP1;ratioP1;P2;durP2;ratioP2
18104;SDS011;9179;50.968;3.134;2023-08-21T00:01:33;4.90;;;3.28;;
18104;SDS011;9179;50.968;3.134;2023-08-21T00:04:00;6.43;;;3.15;;
18104;SDS011;9179;50.968;3.134;2023-08-21T00:06:26;6.28;;;3.60;;
18104;SDS011;9179;50.968;3.134;2023-08-21T00:08:53;4.72;;;3.38;;
18104;SDS011;9179;50.968;3.134;2023-08-21T00:11:20;3.60;;;3.30;;
18104;SDS011;9179;50.968;3.134;2023-08-21T00:13:47;4.38;;;3.30;;
18104;SDS011;9179;50.968;3.134;2023-08-21T00:16:16;7.90;;;3.47;;
18104;SDS011;9179;50.968;3.134;2023-08-21T00:18:43;5.90;;;4.28;;
18104;SDS011;9179;50.968;3.134;2023-08-21T00:21:10;4.90;;;3.30;;
18104;SDS011;9179;50.968;3.134;2023-08-21T00:23:37;5.53;;;3.58;;
18104;SDS011;9179;50.968;3.134;2023-08-21T00:26:04;5.60;;;4.28;;
18104;SDS011;9179;50.968;3.134;2023-08-21T00:28:31;4.70;;;4.20;;
18104;SDS011;9179;50.968;3.134;2023-08-21T00:31:00;7.45;;;5.03;;
18104;SDS011;9179;50.968;3.134;2023-08-21T00:33:28;7.88;;;4.63;;
18104;SDS011;9179;50.968;3.134;2023-08-21T00:35:56;11.57;;;4.78;;
18104;SDS011;9179;50.968;3.134;2023-08-21T00:38:23;6.88;;;4.65;;
18104;SDS011;9179;50.968;3.134;2023-08-21T00:40:51;7.13;;;4.20;;
18104;SDS011;9179;50.968;3.134;2023-08-21T00:43:18;6.90;;;4.55;;
18104;SDS011;9179;50.968;3.134;2023-08-21T00:45:45;7.07;;;4.47;;
18104;SDS011;9179;50.968;3.134;2023-08-21T00:48:13;5.10;;;4.60;;
18104;SDS011;9179;50.968;3.134;2023-08-21T00:50:42;11.73;;;5.55;;
18104;SDS011;9179;50.968;3.134;2023-08-21T00:53:10;6.53;;;4.88;;
18104;SDS011;9179;50.968;3.134;2023-08-21T00:55:38;5.45;;;4.03;;
18104;SDS011;9179;50.968;3.134;2023-08-21T00:58:06;5.20;;;4.35;;
18104;SDS011;9179;50.968;3.134;2023-08-21T01:00:35;5.93;;;4.55;;
18104;SDS011;9179;50.968;3.134;2023-08-21T01:03:02;8.93;;;5.65;;
18104;SDS011;9179;50.968;3.134;2023-08-21T01:05:29;8.65;;;6.05;;
18104;SDS011;9179;50.968;3.134;2023-08-21T01:07:59;6.88;;;4.88;;
18104;SDS011;9179;50.968;3.134;2023-08-21T01:10:38;5.57;;;4.65;;
18104;SDS011;9179;50.968;3.134;2023-08-21T01:13:12;7.50;;;5.20;;
18104;SDS011;9179;50.968;3.134;2023-08-21T01:15:48;5.03;;;4.43;;
18104;SDS011;9179;50.968;3.134;2023-08-21T01:18:17;10.45;;;5.05;;
18104;SDS011;9179;50.968;3.134;2023-08-21T01:20:46;6.50;;;4.28;;
18104;SDS011;9179;50.968;3.134;2023-08-21T01:23:27;5.60;;;3.70;;
18104;SDS011;9179;50.968;3.134;2023-08-21T01:25:55;4.75;;;4.30;;
18104;SDS011;9179;50.968;3.134;2023-08-21T01:28:22;4.90;;;4.30;;
18104;SDS011;9179;50.968;3.134;2023-08-21T01:30:49;4.50;;;4.10;;
18104;SDS011;9179;50.968;3.134;2023-08-21T01:33:20;7.63;;;3.70;;
18104;SDS011;9179;50.968;3.134;2023-08-21T01:35:50;6.60;;;4.13;;
18104;SDS011;9179;50.968;3.134;2023-08-21T01:38:17;4.75;;;4.25;;
18104;SDS011;9179;50.968;3.134;2023-08-21T01:40:47;5.45;;;3.15;;
18104;SDS011;9179;50.968;3.134;2023-08-21T01:43:14;6.05;;;4.03;;
18104;SDS011;9179;50.968;3.134;2023-08-21T01:45:41;5.20;;;3.17;;
18104;SDS011;9179;50.968;3.134;2023-08-21T01:48:08;4.32;;;3.63;;
18104;SDS011;9179;50.968;3.134;2023-08-21T01:50:35;4.05;;;3.33;;
18104;SDS011;9179;50.968;3.134;2023-08-21T01:53:02;3.47;;;2.85;;
18104;SDS011;9179;50.968;3.134;2023-08-21T01:55:29;6.45;;;3.45;;
18104;SDS011;9179;50.968;3.134;2023-08-21T01:57:57;6.18;;;3.10;;
18104;SDS011;9179;50.968;3.134;2023-08-21T02:00:24;7.53;;;3.97;;
18104;SDS011;9179;50.968;3.134;2023-08-21T02:02:51;5.63;;;2.97;;
18104;SDS011;9179;50.968;3.134;2023-08-21T02:05:18;4.13;;;2.90;;
18104;SDS011;9179;50.968;3.134;2023-08-21T02:07:44;4.78;;;3.42;;
18104;SDS011;9179;50.968;3.134;2023-08-21T02:10:11;4.93;;;3.58;;
18104;SDS011;9179;50.968;3.134;2023-08-21T02:12:38;7.18;;;3.83;;
18104;SDS011;9179;50.968;3.134;2023-08-21T02:15:07;8.80;;;3.55;;
18104;SDS011;9179;50.968;3.134;2023-08-21T02:17:35;6.97;;;4.18;;
18104;SDS011;9179;50.968;3.134;2023-08-21T02:20:02;5.72;;;4.28;;
18104;SDS011;9179;50.968;3.134;2023-08-21T02:22:29;6.22;;;3.85;;
18104;SDS011;9179;50.968;3.134;2023-08-21T02:24:56;5.95;;;4.03;;
18104;SDS011;9179;50.968;3.134;2023-08-21T02:27:23;5.88;;;4.65;;
18104;SDS011;9179;50.968;3.134;2023-08-21T02:29:50;5.35;;;4.85;;
18104;SDS011;9179;50.968;3.134;2023-08-21T02:32:18;5.82;;;4.22;;
18104;SDS011;9179;50.968;3.134;2023-08-21T02:34:45;4.70;;;4.15;;
18104;SDS011;9179;50.968;3.134;2023-08-21T02:37:12;8.23;;;4.40;;
18104;SDS011;9179;50.968;3.134;2023-08-21T02:39:39;6.70;;;3.85;;
18104;SDS011;9179;50.968;3.134;2023-08-21T02:42:06;5.90;;;4.05;;
18104;SDS011;9179;50.968;3.134;2023-08-21T02:44:33;6.47;;;4.43;;
18104;SDS011;9179;50.968;3.134;2023-08-21T02:46:59;4.65;;;4.07;;
18104;SDS011;9179;50.968;3.134;2023-08-21T02:49:28;5.35;;;4.07;;
18104;SDS011;9179;50.968;3.134;2023-08-21T02:51:54;8.13;;;4.95;;
18104;SDS011;9179;50.968;3.134;2023-08-21T02:54:21;10.23;;;4.57;;
18104;SDS011;9179;50.968;3.134;2023-08-21T02:56:48;7.00;;;4.50;;
18104;SDS011;9179;50.968;3.134;2023-08-21T02:59:15;9.32;;;5.15;;
18104;SDS011;9179;50.968;3.134;2023-08-21T03:01:42;4.97;;;4.55;;
18104;SDS011;9179;50.968;3.134;2023-08-21T03:04:09;6.50;;;4.97;;
18104;SDS011;9179;50.968;3.134;2023-08-21T03:06:37;8.38;;;5.10;;
18104;SDS011;9179;50.968;3.134;2023-08-21T03:09:04;7.75;;;6.00;;
18104;SDS011;9179;50.968;3.134;2023-08-21T03:11:31;12.63;;;6.53;;
18104;SDS011;9179;50.968;3.134;2023-08-21T03:13:58;8.20;;;5.78;;
18104;SDS011;9179;50.968;3.134;2023-08-21T03:16:25;6.95;;;4.70;;
18104;SDS011;9179;50.968;3.134;2023-08-21T03:18:55;7.53;;;5.38;;
18104;SDS011;9179;50.968;3.134;2023-08-21T03:21:23;8.13;;;5.18;;
18104;SDS011;9179;50.968;3.134;2023-08-21T03:23:54;8.77;;;6.07;;
18104;SDS011;9179;50.968;3.134;2023-08-21T03:26:21;8.02;;;5.90;;
18104;SDS011;9179;50.968;3.134;2023-08-21T03:28:48;10.38;;;5.90;;
18104;SDS011;9179;50.968;3.134;2023-08-21T03:31:15;8.38;;;5.63;;
18104;SDS011;9179;50.968;3.134;2023-08-21T03:33:43;8.27;;;5.60;;
18104;SDS011;9179;50.968;3.134;2023-08-21T03:36:09;7.05;;;5.63;;
18104;SDS011;9179;50.968;3.134;2023-08-21T03:38:36;11.30;;;5.95;;
18104;SDS011;9179;50.968;3.134;2023-08-21T03:41:05;9.15;;;6.15;;
18104;SDS011;9179;50.968;3.134;2023-08-21T03:43:31;10.45;;;5.65;;
18104;SDS011;9179;50.968;3.134;2023-08-21T03:45:58;9.30;;;6.43;;
18104;SDS011;9179;50.968;3.134;2023-08-21T03:48:25;10.40;;;6.13;;
18104;SDS011;9179;50.968;3.134;2023-08-21T03:50:52;9.80;;;7.07;;
18104;SDS011;9179;50.968;3.134;2023-08-21T03:53:19;11.40;;;6.78;;
18104;SDS011;9179;50.968;3.134;2023-08-21T03:55:46;10.40;;;6.85;;
18104;SDS011;9179;50.968;3.134;2023-08-21T03:58:14;8.80;;;7.10;;
18104;SDS011;9179;50.968;3.134;2023-08-21T04:00:41;10.07;;;7.80;;
18104;SDS011;9179;50.968;3.134;2023-08-21T04:03:08;10.95;;;7.82;;
18104;SDS011;9179;50.968;3.134;2023-08-21T04:05:34;12.88;;;7.65;;
18104;SDS011;9179;50.968;3.134;2023-08-21T04:08:01;10.32;;;7.35;;
18104;SDS011;9179;50.968;3.134;2023-08-21T04:10:29;8.85;;;6.93;;
18104;SDS011;9179;50.968;3.134;2023-08-21T04:12:55;12.23;;;8.18;;
18104;SDS011;9179;50.968;3.134;2023-08-21T04:15:24;16.70;;;9.05;;
18104;SDS011;9179;50.968;3.134;2023-08-21T04:17:51;11.60;;;8.02;;
18104;SDS011;9179;50.968;3.134;2023-08-21T04:20:19;12.10;;;8.40;;
18104;SDS011;9179;50.968;3.134;2023-08-21T04:22:46;13.93;;;9.07;;
18104;SDS011;9179;50.968;3.134;2023-08-21T04:25:13;15.18;;;9.55;;
18104;SDS011;9179;50.968;3.134;2023-08-21T04:27:41;15.15;;;9.90;;
18104;SDS011;9179;50.968;3.134;2023-08-21T04:30:08;15.52;;;9.63;;
18104;SDS011;9179;50.968;3.134;2023-08-21T04:32:37;18.58;;;9.90;;
18104;SDS011;9179;50.968;3.134;2023-08-21T04:35:04;16.92;;;11.35;;
18104;SDS011;9179;50.968;3.134;2023-08-21T04:37:33;12.55;;;9.75;;
18104;SDS011;9179;50.968;3.134;2023-08-21T04:40:00;12.73;;;10.95;;
18104;SDS011;9179;50.968;3.134;2023-08-21T04:42:27;15.90;;;11.93;;
18104;SDS011;9179;50.968;3.134;2023-08-21T04:44:54;13.85;;;11.05;;
18104;SDS011;9179;50.968;3.134;2023-08-21T04:47:21;16.80;;;10.75;;
18104;SDS011;9179;50.968;3.134;2023-08-21T04:49:50;18.00;;;11.40;;
18104;SDS011;9179;50.968;3.134;2023-08-21T04:52:18;16.60;;;11.98;;
18104;SDS011;9179;50.968;3.134;2023-08-21T04:54:45;14.32;;;11.20;;
18104;SDS011;9179;50.968;3.134;2023-08-21T04:57:13;15.70;;;12.15;;
18104;SDS011;9179;50.968;3.134;2023-08-21T04:59:40;16.48;;;11.32;;
18104;SDS011;9179;50.968;3.134;2023-08-21T05:02:07;15.63;;;12.15;;
18104;SDS011;9179;50.968;3.134;2023-08-21T05:04:35;18.85;;;12.85;;
18104;SDS011;9179;50.968;3.134;2023-08-21T05:07:04;14.23;;;11.15;;
18104;SDS011;9179;50.968;3.134;2023-08-21T05:09:31;14.57;;;12.13;;
18104;SDS011;9179;50.968;3.134;2023-08-21T05:11:58;22.10;;;13.23;;
18104;SDS011;9179;50.968;3.134;2023-08-21T05:14:25;15.90;;;12.18;;
18104;SDS011;9179;50.968;3.134;2023-08-21T05:16:52;17.77;;;12.27;;
18104;SDS011;9179;50.968;3.134;2023-08-21T05:19:19;16.58;;;11.52;;
18104;SDS011;9179;50.968;3.134;2023-08-21T05:21:46;17.92;;;12.90;;
18104;SDS011;9179;50.968;3.134;2023-08-21T05:24:14;18.58;;;14.73;;
18104;SDS011;9179;50.968;3.134;2023-08-21T05:26:41;16.58;;;13.00;;
18104;SDS011;9179;50.968;3.134;2023-08-21T05:29:08;19.92;;;13.52;;
18104;SDS011;9179;50.968;3.134;2023-08-21T05:31:34;22.23;;;13.75;;
18104;SDS011;9179;50.968;3.134;2023-08-21T05:34:02;20.65;;;13.60;;
18104;SDS011;9179;50.968;3.134;2023-08-21T05:36:28;20.70;;;15.25;;
18104;SDS011;9179;50.968;3.134;2023-08-21T05:38:56;21.73;;;15.70;;
18104;SDS011;9179;50.968;3.134;2023-08-21T05:41:24;17.15;;;14.77;;
18104;SDS011;9179;50.968;3.134;2023-08-21T05:43:51;21.13;;;15.73;;
18104;SDS011;9179;50.968;3.134;2023-08-21T05:46:18;26.38;;;17.25;;
18104;SDS011;9179;50.968;3.134;2023-08-21T05:48:45;25.13;;;17.40;;
18104;SDS011;9179;50.968;3.134;2023-08-21T05:51:12;29.88;;;19.83;;
18104;SDS011;9179;50.968;3.134;2023-08-21T05:53:39;27.35;;;19.95;;
18104;SDS011;9179;50.968;3.134;2023-08-21T05:56:06;28.65;;;20.20;;
18104;SDS011;9179;50.968;3.134;2023-08-21T05:58:34;28.98;;;19.33;;
18104;SDS011;9179;50.968;3.134;2023-08-21T06:01:01;29.73;;;21.35;;
18104;SDS011;9179;50.968;3.134;2023-08-21T06:03:28;28.48;;;19.63;;
18104;SDS011;9179;50.968;3.134;2023-08-21T06:05:55;31.20;;;21.52;;
18104;SDS011;9179;50.968;3.134;2023-08-21T06:08:21;40.92;;;24.52;;
18104;SDS011;9179;50.968;3.134;2023-08-21T06:10:50;38.42;;;23.50;;
18104;SDS011;9179;50.968;3.134;2023-08-21T06:13:18;36.65;;;24.85;;
18104;SDS011;9179;50.968;3.134;2023-08-21T06:15:46;38.35;;;24.30;;
18104;SDS011;9179;50.968;3.134;2023-08-21T06:18:13;40.03;;;25.55;;
18104;SDS011;9179;50.968;3.134;2023-08-21T06:20:41;40.33;;;24.77;;
18104;SDS011;9179;50.968;3.134;2023-08-21T06:23:09;39.28;;;25.33;;
18104;SDS011;9179;50.968;3.134;2023-08-21T06:25:36;42.40;;;24.95;;
18104;SDS011;9179;50.968;3.134;2023-08-21T06:28:03;33.95;;;24.08;;
18104;SDS011;9179;50.968;3.134;2023-08-21T06:30:30;39.75;;;24.95;;
18104;SDS011;9179;50.968;3.134;2023-08-21T06:32:59;33.67;;;23.75;;
18104;SDS011;9179;50.968;3.134;2023-08-21T06:35:26;35.92;;;24.00;;
18104;SDS011;9179;50.968;3.134;2023-08-21T06:37:53;45.45;;;25.63;;
18104;SDS011;9179;50.968;3.134;2023-08-21T06:40:20;39.63;;;21.88;;
18104;SDS011;9179;50.968;3.134;2023-08-21T06:42:47;36.70;;;23.05;;
18104;SDS011;9179;50.968;3.134;2023-08-21T06:45:16;31.08;;;21.05;;
18104;SDS011;9179;50.968;3.134;2023-08-21T06:47:43;35.97;;;22.30;;
18104;SDS011;9179;50.968;3.134;2023-08-21T06:50:11;32.58;;;20.65;;
18104;SDS011;9179;50.968;3.134;2023-08-21T06:52:38;33.53;;;20.77;;
18104;SDS011;9179;50.968;3.134;2023-08-21T06:55:06;31.25;;;20.23;;
18104;SDS011;9179;50.968;3.134;2023-08-21T06:57:33;26.42;;;19.80;;
18104;SDS011;9179;50.968;3.134;2023-08-21T07:00:00;30.85;;;20.20;;
18104;SDS011;9179;50.968;3.134;2023-08-21T07:02:27;30.67;;;20.75;;
18104;SDS011;9179;50.968;3.134;2023-08-21T07:04:54;25.60;;;17.33;;
18104;SDS011;9179;50.968;3.134;2023-08-21T07:07:22;28.80;;;16.27;;
18104;SDS011;9179;50.968;3.134;2023-08-21T07:09:49;21.90;;;15.80;;
18104;SDS011;9179;50.968;3.134;2023-08-21T07:12:16;27.02;;;17.63;;
18104;SDS011;9179;50.968;3.134;2023-08-21T07:14:43;25.45;;;18.55;;
18104;SDS011;9179;50.968;3.134;2023-08-21T07:17:10;26.80;;;18.67;;
18104;SDS011;9179;50.968;3.134;2023-08-21T07:19:37;23.20;;;16.85;;
18104;SDS011;9179;50.968;3.134;2023-08-21T07:22:04;26.00;;;17.23;;
18104;SDS011;9179;50.968;3.134;2023-08-21T07:24:32;21.13;;;16.00;;
18104;SDS011;9179;50.968;3.134;2023-08-21T07:26:59;21.67;;;15.77;;
18104;SDS011;9179;50.968;3.134;2023-08-21T07:29:26;25.67;;;16.30;;
18104;SDS011;9179;50.968;3.134;2023-08-21T07:31:52;27.70;;;17.70;;
18104;SDS011;9179;50.968;3.134;2023-08-21T07:34:19;22.92;;;16.02;;
18104;SDS011;9179;50.968;3.134;2023-08-21T07:36:46;23.63;;;17.02;;
18104;SDS011;9179;50.968;3.134;2023-08-21T07:39:13;26.33;;;19.17;;
18104;SDS011;9179;50.968;3.134;2023-08-21T07:41:41;23.45;;;16.88;;
18104;SDS011;9179;50.968;3.134;2023-08-21T07:44:08;23.88;;;17.42;;
18104;SDS011;9179;50.968;3.134;2023-08-21T07:46:35;25.70;;;16.92;;
18104;SDS011;9179;50.968;3.134;2023-08-21T07:49:02;27.40;;;18.50;;
18104;SDS011;9179;50.968;3.134;2023-08-21T07:51:28;23.15;;;16.05;;
18104;SDS011;9179;50.968;3.134;2023-08-21T07:53:55;23.85;;;16.27;;
18104;SDS011;9179;50.968;3.134;2023-08-21T07:56:22;17.70;;;14.75;;
18104;SDS011;9179;50.968;3.134;2023-08-21T07:58:50;16.77;;;13.50;;
18104;SDS011;9179;50.968;3.134;2023-08-21T08:01:17;20.55;;;15.23;;
18104;SDS011;9179;50.968;3.134;2023-08-21T08:03:46;18.63;;;14.20;;
18104;SDS011;9179;50.968;3.134;2023-08-21T08:06:14;20.08;;;15.20;;
18104;SDS011;9179;50.968;3.134;2023-08-21T08:08:41;15.98;;;14.38;;
18104;SDS011;9179;50.968;3.134;2023-08-21T08:11:07;17.15;;;14.40;;
18104;SDS011;9179;50.968;3.134;2023-08-21T08:13:34;19.77;;;14.65;;
18104;SDS011;9179;50.968;3.134;2023-08-21T08:16:02;16.20;;;14.50;;
18104;SDS011;9179;50.968;3.134;2023-08-21T08:18:30;17.00;;;15.05;;
18104;SDS011;9179;50.968;3.134;2023-08-21T08:20:56;15.70;;;13.90;;
18104;SDS011;9179;50.968;3.134;2023-08-21T08:23:23;16.27;;;14.77;;
18104;SDS011;9179;50.968;3.134;2023-08-21T08:25:50;16.92;;;14.38;;
18104;SDS011;9179;50.968;3.134;2023-08-21T08:28:17;16.83;;;15.32;;
18104;SDS011;9179;50.968;3.134;2023-08-21T08:30:44;14.80;;;13.40;;
18104;SDS011;9179;50.968;3.134;2023-08-21T08:33:13;14.10;;;12.70;;
18104;SDS011;9179;50.968;3.134;2023-08-21T08:35:40;14.15;;;12.85;;
18104;SDS011;9179;50.968;3.134;2023-08-21T08:38:07;14.63;;;13.35;;
18104;SDS011;9179;50.968;3.134;2023-08-21T08:40:34;15.02;;;13.57;;
18104;SDS011;9179;50.968;3.134;2023-08-21T08:43:08;14.07;;;12.68;;
18104;SDS011;9179;50.968;3.134;2023-08-21T08:45:36;15.13;;;13.82;;
18104;SDS011;9179;50.968;3.134;2023-08-21T08:48:04;13.63;;;12.23;;
18104;SDS011;9179;50.968;3.134;2023-08-21T08:50:33;13.18;;;12.07;;
18104;SDS011;9179;50.968;3.134;2023-08-21T08:53:00;14.43;;;12.93;;
18104;SDS011;9179;50.968;3.134;2023-08-21T08:55:28;13.88;;;12.75;;
18104;SDS011;9179;50.968;3.134;2023-08-21T08:57:56;14.40;;;12.85;;
18104;SDS011;9179;50.968;3.134;2023-08-21T09:00:23;14.13;;;12.68;;
18104;SDS011;9179;50.968;3.134;2023-08-21T09:02:50;14.30;;;12.60;;
18104;SDS011;9179;50.968;3.134;2023-08-21T09:05:18;13.10;;;11.32;;
18104;SDS011;9179;50.968;3.134;2023-08-21T09:07:46;12.07;;;10.98;;
18104;SDS011;9179;50.968;3.134;2023-08-21T09:10:36;11.88;;;10.70;;
18104;SDS011;9179;50.968;3.134;2023-08-21T09:13:08;12.35;;;11.20;;
18104;SDS011;9179;50.968;3.134;2023-08-21T09:15:37;11.82;;;10.82;;
18104;SDS011;9179;50.968;3.134;2023-08-21T09:18:03;11.90;;;10.75;;
18104;SDS011;9179;50.968;3.134;2023-08-21T09:20:34;12.57;;;10.07;;
18104;SDS011;9179;50.968;3.134;2023-08-21T09:23:03;10.27;;;9.38;;
18104;SDS011;9179;50.968;3.134;2023-08-21T09:25:33;10.98;;;10.15;;
18104;SDS011;9179;50.968;3.134;2023-08-21T09:28:03;10.30;;;9.35;;
18104;SDS011;9179;50.968;3.134;2023-08-21T09:30:42;9.88;;;8.98;;
18104;SDS011;9179;50.968;3.134;2023-08-21T09:33:11;8.32;;;6.90;;
18104;SDS011;9179;50.968;3.134;2023-08-21T09:35:38;7.25;;;6.60;;
18104;SDS011;9179;50.968;3.134;2023-08-21T09:38:08;8.98;;;7.78;;
18104;SDS011;9179;50.968;3.134;2023-08-21T09:40:38;9.88;;;8.98;;
18104;SDS011;9179;50.968;3.134;2023-08-21T09:43:07;8.23;;;7.55;;
18104;SDS011;9179;50.968;3.134;2023-08-21T09:45:35;8.25;;;7.55;;
18104;SDS011;9179;50.968;3.134;2023-08-21T09:48:02;7.70;;;7.03;;
18104;SDS011;9179;50.968;3.134;2023-08-21T09:50:30;8.77;;;8.00;;
18104;SDS011;9179;50.968;3.134;2023-08-21T09:52:58;8.82;;;8.07;;
18104;SDS011;9179;50.968;3.134;2023-08-21T09:55:26;8.98;;;8.20;;
18104;SDS011;9179;50.968;3.134;2023-08-21T09:57:56;8.45;;;7.68;;
18104;SDS011;9179;50.968;3.134;2023-08-21T10:00:26;9.48;;;8.68;;
18104;SDS011;9179;50.968;3.134;2023-08-21T10:02:58;7.40;;;6.90;;
18104;SDS011;9179;50.968;3.134;2023-08-21T10:05:28;8.52;;;7.85;;
18104;SDS011;9179;50.968;3.134;2023-08-21T10:07:56;8.40;;;7.72;;
18104;SDS011;9179;50.968;3.134;2023-08-21T10:10:27;8.98;;;8.07;;
18104;SDS011;9179;50.968;3.134;2023-08-21T10:12:55;9.30;;;8.55;;
18104;SDS011;9179;50.968;3.134;2023-08-21T10:15:22;8.27;;;7.53;;
18104;SDS011;9179;50.968;3.134;2023-08-21T10:17:50;8.85;;;8.15;;
18104;SDS011;9179;50.968;3.134;2023-08-21T10:20:20;7.65;;;7.00;;
18104;SDS011;9179;50.968;3.134;2023-08-21T10:22:49;7.47;;;6.88;;
18104;SDS011;9179;50.968;3.134;2023-08-21T10:25:16;6.75;;;6.25;;
18104;SDS011;9179;50.968;3.134;2023-08-21T10:27:50;7.47;;;6.78;;
18104;SDS011;9179;50.968;3.134;2023-08-21T10:30:22;8.15;;;6.53;;
18104;SDS011;9179;50.968;3.134;2023-08-21T10:32:51;7.25;;;6.55;;
18104;SDS011;9179;50.968;3.134;2023-08-21T10:35:19;7.53;;;6.90;;
18104;SDS011;9179;50.968;3.134;2023-08-21T10:38:06;9.30;;;8.55;;
18104;SDS011;9179;50.968;3.134;2023-08-21T10:40:34;8.85;;;8.00;;
18104;SDS011;9179;50.968;3.134;2023-08-21T10:43:02;7.28;;;6.72;;
18104;SDS011;9179;50.968;3.134;2023-08-21T10:45:30;7.38;;;6.68;;
18104;SDS011;9179;50.968;3.134;2023-08-21T10:47:57;7.63;;;6.93;;
18104;SDS011;9179;50.968;3.134;2023-08-21T10:50:25;7.22;;;6.72;;
18104;SDS011;9179;50.968;3.134;2023-08-21T10:52:52;5.93;;;5.43;;
18104;SDS011;9179;50.968;3.134;2023-08-21T10:55:20;7.03;;;6.45;;
18104;SDS011;9179;50.968;3.134;2023-08-21T10:57:48;6.70;;;6.13;;
18104;SDS011;9179;50.968;3.134;2023-08-21T11:00:17;7.65;;;7.15;;
18104;SDS011;9179;50.968;3.134;2023-08-21T11:02:46;8.30;;;7.47;;
18104;SDS011;9179;50.968;3.134;2023-08-21T11:05:14;7.68;;;7.07;;
18104;SDS011;9179;50.968;3.134;2023-08-21T11:07:42;7.90;;;7.38;;
18104;SDS011;9179;50.968;3.134;2023-08-21T11:10:11;7.22;;;6.53;;
18104;SDS011;9179;50.968;3.134;2023-08-21T11:12:49;8.38;;;7.57;;
18104;SDS011;9179;50.968;3.134;2023-08-21T11:15:18;7.05;;;6.38;;
18104;SDS011;9179;50.968;3.134;2023-08-21T11:17:53;7.25;;;6.35;;
18104;SDS011;9179;50.968;3.134;2023-08-21T11:20:20;6.97;;;6.28;;
18104;SDS011;9179;50.968;3.134;2023-08-21T11:22:47;6.53;;;6.03;;
18104;SDS011;9179;50.968;3.134;2023-08-21T11:25:14;9.30;;;8.60;;
18104;SDS011;9179;50.968;3.134;2023-08-21T11:27:42;8.57;;;7.78;;
18104;SDS011;9179;50.968;3.134;2023-08-21T11:30:10;7.22;;;6.72;;
18104;SDS011;9179;50.968;3.134;2023-08-21T11:32:40;7.53;;;6.93;;
18104;SDS011;9179;50.968;3.134;2023-08-21T11:35:07;6.53;;;5.22;;
18104;SDS011;9179;50.968;3.134;2023-08-21T11:37:34;4.32;;;4.03;;
18104;SDS011;9179;50.968;3.134;2023-08-21T11:40:09;5.93;;;5.15;;
18104;SDS011;9179;50.968;3.134;2023-08-21T11:42:36;6.18;;;5.63;;
18104;SDS011;9179;50.968;3.134;2023-08-21T11:45:03;6.88;;;6.38;;
18104;SDS011;9179;50.968;3.134;2023-08-21T11:47:31;7.68;;;6.97;;
18104;SDS011;9179;50.968;3.134;2023-08-21T11:50:03;7.97;;;7.25;;
18104;SDS011;9179;50.968;3.134;2023-08-21T11:52:31;6.68;;;6.18;;
18104;SDS011;9179;50.968;3.134;2023-08-21T11:54:58;6.65;;;6.10;;
18104;SDS011;9179;50.968;3.134;2023-08-21T11:57:25;6.32;;;5.75;;
18104;SDS011;9179;50.968;3.134;2023-08-21T11:59:55;6.72;;;6.03;;
18104;SDS011;9179;50.968;3.134;2023-08-21T12:02:22;5.93;;;5.50;;
18104;SDS011;9179;50.968;3.134;2023-08-21T12:04:53;6.85;;;6.30;;
18104;SDS011;9179;50.968;3.134;2023-08-21T12:07:22;6.20;;;5.70;;
18104;SDS011;9179;50.968;3.134;2023-08-21T12:09:49;4.70;;;4.40;;
18104;SDS011;9179;50.968;3.134;2023-08-21T12:12:16;6.30;;;5.07;;
18104;SDS011;9179;50.968;3.134;2023-08-21T12:14:43;6.60;;;5.95;;
18104;SDS011;9179;50.968;3.134;2023-08-21T12:17:10;7.85;;;7.18;;
18104;SDS011;9179;50.968;3.134;2023-08-21T12:19:37;7.10;;;6.60;;
18104;SDS011;9179;50.968;3.134;2023-08-21T12:22:04;6.22;;;5.63;;
18104;SDS011;9179;50.968;3.134;2023-08-21T12:24:32;4.97;;;4.32;;
18104;SDS011;9179;50.968;3.134;2023-08-21T12:26:59;3.35;;;3.05;;
18104;SDS011;9179;50.968;3.134;2023-08-21T12:29:26;3.75;;;2.45;;
18104;SDS011;9179;50.968;3.134;2023-08-21T12:31:53;2.53;;;2.33;;
18104;SDS011;9179;50.968;3.134;2023-08-21T12:34:20;3.72;;;2.70;;
18104;SDS011;9179;50.968;3.134;2023-08-21T12:36:50;3.63;;;2.72;;
18104;SDS011;9179;50.968;3.134;2023-08-21T12:39:17;4.68;;;3.80;;
18104;SDS011;9179;50.968;3.134;2023-08-21T12:41:45;3.50;;;3.30;;
18104;SDS011;9179;50.968;3.134;2023-08-21T12:44:13;4.72;;;4.32;;
18104;SDS011;9179;50.968;3.134;2023-08-21T12:46:40;3.95;;;3.38;;
18104;SDS011;9179;50.968;3.134;2023-08-21T12:49:07;5.25;;;3.47;;
18104;SDS011;9179;50.968;3.134;2023-08-21T12:51:34;4.55;;;2.92;;
18104;SDS011;9179;50.968;3.134;2023-08-21T12:54:01;5.25;;;3.17;;
18104;SDS011;9179;50.968;3.134;2023-08-21T12:56:28;2.88;;;2.67;;
18104;SDS011;9179;50.968;3.134;2023-08-21T12:58:56;2.90;;;2.70;;
18104;SDS011;9179;50.968;3.134;2023-08-21T13:01:24;5.55;;;3.33;;
18104;SDS011;9179;50.968;3.134;2023-08-21T13:03:51;2.75;;;2.55;;
18104;SDS011;9179;50.968;3.134;2023-08-21T13:06:18;2.50;;;1.60;;
18104;SDS011;9179;50.968;3.134;2023-08-21T13:08:45;4.93;;;2.15;;
18104;SDS011;9179;50.968;3.134;2023-08-21T13:11:12;2.75;;;1.60;;
18104;SDS011;9179;50.968;3.134;2023-08-21T13:13:39;3.28;;;1.85;;
18104;SDS011;9179;50.968;3.134;2023-08-21T13:16:07;2.22;;;1.95;;
18104;SDS011;9179;50.968;3.134;2023-08-21T13:18:34;1.80;;;1.70;;
18104;SDS011;9179;50.968;3.134;2023-08-21T13:21:01;3.10;;;1.73;;
18104;SDS011;9179;50.968;3.134;2023-08-21T13:23:29;3.08;;;2.30;;
18104;SDS011;9179;50.968;3.134;2023-08-21T13:25:59;3.08;;;1.98;;
18104;SDS011;9179;50.968;3.134;2023-08-21T13:28:26;4.57;;;2.63;;
18104;SDS011;9179;50.968;3.134;2023-08-21T13:30:53;7.50;;;6.63;;
18104;SDS011;9179;50.968;3.134;2023-08-21T13:33:22;6.15;;;5.55;;
18104;SDS011;9179;50.968;3.134;2023-08-21T13:35:49;6.10;;;5.60;;
18104;SDS011;9179;50.968;3.134;2023-08-21T13:38:16;6.03;;;5.63;;
18104;SDS011;9179;50.968;3.134;2023-08-21T13:40:43;3.70;;;3.40;;
18104;SDS011;9179;50.968;3.134;2023-08-21T13:43:10;4.05;;;3.08;;
18104;SDS011;9179;50.968;3.134;2023-08-21T13:45:37;5.68;;;3.75;;
18104;SDS011;9179;50.968;3.134;2023-08-21T13:48:08;3.80;;;3.10;;
18104;SDS011;9179;50.968;3.134;2023-08-21T13:50:36;4.90;;;4.50;;
18104;SDS011;9179;50.968;3.134;2023-08-21T13:53:03;5.10;;;3.80;;
18104;SDS011;9179;50.968;3.134;2023-08-21T13:55:30;3.60;;;2.90;;
18104;SDS011;9179;50.968;3.134;2023-08-21T13:57:57;5.38;;;4.30;;
18104;SDS011;9179;50.968;3.134;2023-08-21T14:00:24;6.22;;;5.30;;
18104;SDS011;9179;50.968;3.134;2023-08-21T14:02:50;5.57;;;4.50;;
18104;SDS011;9179;50.968;3.134;2023-08-21T14:05:17;6.05;;;5.22;;
18104;SDS011;9179;50.968;3.134;2023-08-21T14:07:46;6.93;;;6.32;;
18104;SDS011;9179;50.968;3.134;2023-08-21T14:10:12;7.22;;;6.70;;
18104;SDS011;9179;50.968;3.134;2023-08-21T14:12:40;10.82;;;9.80;;
18104;SDS011;9179;50.968;3.134;2023-08-21T14:15:07;7.13;;;6.00;;
18104;SDS011;9179;50.968;3.134;2023-08-21T14:17:35;7.25;;;6.68;;
18104;SDS011;9179;50.968;3.134;2023-08-21T14:20:03;6.20;;;5.60;;
18104;SDS011;9179;50.968;3.134;2023-08-21T14:22:32;6.97;;;6.35;;
18104;SDS011;9179;50.968;3.134;2023-08-21T14:25:00;8.90;;;8.00;;
18104;SDS011;9179;50.968;3.134;2023-08-21T14:27:28;8.23;;;7.43;;
18104;SDS011;9179;50.968;3.134;2023-08-21T14:29:55;8.77;;;7.97;;
18104;SDS011;9179;50.968;3.134;2023-08-21T14:32:22;7.57;;;6.97;;
18104;SDS011;9179;50.968;3.134;2023-08-21T14:34:49;7.53;;;6.90;;
18104;SDS011;9179;50.968;3.134;2023-08-21T14:37:18;9.05;;;8.27;;
18104;SDS011;9179;50.968;3.134;2023-08-21T14:39:46;6.57;;;5.90;;
18104;SDS011;9179;50.968;3.134;2023-08-21T14:42:14;6.05;;;5.55;;
18104;SDS011;9179;50.968;3.134;2023-08-21T14:44:41;6.45;;;5.85;;
18104;SDS011;9179;50.968;3.134;2023-08-21T14:47:08;7.10;;;6.05;;
18104;SDS011;9179;50.968;3.134;2023-08-21T14:49:36;10.95;;;7.50;;
18104;SDS011;9179;50.968;3.134;2023-08-21T14:52:03;8.35;;;6.57;;
18104;SDS011;9179;50.968;3.134;2023-08-21T14:54:32;8.77;;;7.00;;